Byron, Michigan
Current Conditions -  °F | °C
As of 5:54 PM on Friday 28 Nov 2014 (Local Time) from KOZW Reporting Station
Light Snow Light Snow  
Wind Chill: 14°   Ceiling: 6500
Heat Index: 24°   Visibility: 5mi
Dew Point: 20°   Wind: 10mph
Humidity: 85%   Direction: 150°SSE
Pressure: 30.11"   Gusts: NA
Location:  42.82°N, 83.94°W
Report Text: KOZW 282254Z AUTO 15009KT 5SM -SN SCT019 BKN065 OVC090 M04/M07 A3011 RMK AO2 T10441066
Loading
Personal Weather Stations






























Interactive Weather Map New forecast layout! Learn more

10-Day Weather Forecast

Advertisements
Track Severe Weather on mobile